Tunnel City, WI (54662)

10:15 AM CDT on September 05, 2015 (GMT -0500)
Water Mill | | Change Station
CLOSE
Current Station
Personal Weather Station
Location: Tomah, WI
Elevation: 950 ft
Nearby Weather Stations

Elev 950 ft 44.05 °N, 90.46 °W | Updated 14 seconds ago

Partly Cloudy
Partly Cloudy
79.4 °F
Feels Like 83 °F
N
0.0
Wind Variable Wind from East
Gusts 0.0 mph

Today
High -- | Low -- °F
--% Chance of Precip.
Yesterday
High -- | Low -- °F
Precip. -- in
6:29 AM 7:31 PM
Waning Gibbous, 48% visible
Pressure 30.05 in
Visibility 10.0 miles
Clouds Clear
Heat Index 83 °F
Dew Point 73 °F
Humidity 80%
Rainfall 0.00 in
Snow Depth Not available.
UV 0.0 out of 12
Pollen 8.90 out of 12
Air Quality Not available.
Flu Activity Not available.
METAR KCMY 051455Z AUTO 00000KT 10SM CLR 25/18 A3005 RMK AO2 T02500175
Pressure 30.05 in
Visibility 10.0 miles
Clouds Clear
Heat Index 83 °F
Dew Point 73 °F
Humidity 80%
Rainfall 0.00 in
Snow Depth Not available.
UV 0.0 out of 12
Pollen 8.90 out of 12
Air Quality Not available.
Flu Activity Not available.
METAR KCMY 051455Z AUTO 00000KT 10SM CLR 25/18 A3005 RMK AO2 T02500175

10-Day Weather Forecast

×

Almanac

Astronomy

Sep. 05, 2015 Rise Set
Actual Time
Civil Twilight
Nautical Twilight
Astronomical Twilight
Moon
Length of Visible Light
Length of Day
Tomorrow will be .
, % of the Moon is Illuminated

Today's Extremes

State Highs State Lows

Community

WunderPhotos

Upload Photos

1,852,480 photos uploaded!

WunderBlogs® & News

Nearby

Air Quality

  Air Quality AQ Index Pollutant
Not available.

Snow Depth

Station Depth Elevation

Earthquake Activity

City Distance Mag. Time & Date
Minimum magnitude displayed is 2.5.

Coastal Water Temperatures

Place Temperature

Stations

Nearby Weather Stations

Station Location Temp. Windchill Dew Point Humidity Wind Precip. Elev Updated Type